createdAt,value
2017-10-26T00:00:31.601Z,2.70
2017-10-26T00:02:59.412Z,2.90
2017-10-26T00:05:27.189Z,3.20
2017-10-26T00:07:54.994Z,2.40
2017-10-26T00:10:22.903Z,3.30
2017-10-26T00:12:50.652Z,2.63
2017-10-26T00:15:18.419Z,2.30
2017-10-26T00:17:46.311Z,2.30
2017-10-26T00:20:14.084Z,2.30
2017-10-26T00:22:41.942Z,2.00
2017-10-26T00:25:09.866Z,2.07
2017-10-26T00:27:37.813Z,2.03
2017-10-26T00:30:05.736Z,1.87
2017-10-26T00:32:35.403Z,3.33
2017-10-26T00:35:03.224Z,3.20
2017-10-26T00:37:31.278Z,2.60
2017-10-26T00:39:59.347Z,2.07
2017-10-26T00:42:27.215Z,2.20
2017-10-26T00:44:55.089Z,2.23
2017-10-26T00:47:23.276Z,1.80
2017-10-26T00:49:51.133Z,1.73
2017-10-26T00:52:18.994Z,1.50
2017-10-26T00:54:46.959Z,1.80
2017-10-26T00:57:14.914Z,1.57
2017-10-26T00:59:42.996Z,1.60
2017-10-26T01:02:10.868Z,1.80
2017-10-26T01:04:38.879Z,1.30
2017-10-26T01:07:06.889Z,1.80
2017-10-26T01:09:35.293Z,1.90
2017-10-26T01:12:03.152Z,1.57
2017-10-26T01:14:31.001Z,2.00
2017-10-26T01:16:58.879Z,1.90
2017-10-26T01:19:26.751Z,1.87
2017-10-26T01:21:54.700Z,1.30
2017-10-26T01:24:22.935Z,1.40
2017-10-26T01:26:51.663Z,1.70
2017-10-26T01:29:19.748Z,2.00
2017-10-26T01:31:47.704Z,2.53
2017-10-26T01:34:15.759Z,1.70
2017-10-26T01:36:43.846Z,1.60
2017-10-26T01:39:12.019Z,2.47
2017-10-26T01:41:40.571Z,2.47
2017-10-26T01:44:08.415Z,2.07
2017-10-26T01:46:37.261Z,1.63
2017-10-26T01:49:05.208Z,3.33
2017-10-26T01:51:33.315Z,2.27
2017-10-26T01:54:01.187Z,2.27
2017-10-26T01:56:29.051Z,2.80
2017-10-26T01:58:57.000Z,3.50
2017-10-26T02:01:25.169Z,3.13
2017-10-26T02:03:53.381Z,2.83
2017-10-26T02:06:22.773Z,2.60
2017-10-26T02:08:50.633Z,2.50
2017-10-26T02:11:18.435Z,2.00
2017-10-26T02:13:47.063Z,2.40
2017-10-26T02:16:14.927Z,3.00
2017-10-26T02:18:42.967Z,2.37
2017-10-26T02:21:11.082Z,2.07
2017-10-26T02:23:38.966Z,2.40
2017-10-26T02:26:07.033Z,2.17
2017-10-26T02:28:46.976Z,1.80
2017-10-26T02:31:26.520Z,1.97
2017-10-26T02:33:54.480Z,1.60
2017-10-26T02:36:22.336Z,1.60
2017-10-26T02:38:50.318Z,1.97
2017-10-26T02:41:18.199Z,1.60
2017-10-26T02:43:46.141Z,1.20
2017-10-26T02:46:14.314Z,2.10
2017-10-26T02:48:42.399Z,1.30
2017-10-26T02:51:10.190Z,1.40
2017-10-26T02:56:12.968Z,1.80
2017-10-26T02:58:41.443Z,1.50
2017-10-26T03:01:09.519Z,1.30
2017-10-26T03:03:37.351Z,1.60
2017-10-26T03:06:05.449Z,1.83
2017-10-26T03:08:33.314Z,1.30
2017-10-26T03:11:01.396Z,1.40
2017-10-26T03:13:29.256Z,1.40
2017-10-26T03:15:57.426Z,1.40
2017-10-26T03:18:25.226Z,1.90
2017-10-26T03:20:53.978Z,2.23
2017-10-26T03:23:21.879Z,2.10
2017-10-26T03:25:50.535Z,2.20
2017-10-26T03:28:18.509Z,2.17
2017-10-26T03:30:47.755Z,2.70
2017-10-26T03:33:15.777Z,2.83
2017-10-26T03:35:44.471Z,2.53
2017-10-26T03:38:12.416Z,2.07
2017-10-26T03:40:40.295Z,2.50
2017-10-26T03:43:08.068Z,2.00
2017-10-26T03:45:36.296Z,2.60
2017-10-26T03:48:04.304Z,2.43
2017-10-26T03:50:32.067Z,2.10
2017-10-26T03:52:59.963Z,1.83
2017-10-26T03:55:28.834Z,2.17
2017-10-26T03:57:56.689Z,2.30
2017-10-26T04:00:25.216Z,2.63
2017-10-26T04:02:53.755Z,2.13
2017-10-26T04:05:21.816Z,2.20
2017-10-26T04:07:49.817Z,2.50
2017-10-26T04:10:18.369Z,2.60
2017-10-26T04:12:46.350Z,1.60
2017-10-26T04:15:14.359Z,1.80
2017-10-26T04:17:42.761Z,1.80
2017-10-26T04:20:10.573Z,2.10
2017-10-26T04:22:38.404Z,1.40
2017-10-26T04:25:06.303Z,1.70
2017-10-26T04:27:34.163Z,1.50
2017-10-26T04:30:01.955Z,1.60
2017-10-26T04:32:30.825Z,1.40
2017-10-26T04:34:58.608Z,1.57
2017-10-26T04:37:27.378Z,1.40
2017-10-26T04:39:55.317Z,1.83
2017-10-26T04:42:23.162Z,1.77
2017-10-26T04:44:50.967Z,1.70
2017-10-26T04:47:19.023Z,2.10
2017-10-26T04:49:46.798Z,1.77
2017-10-26T04:52:14.665Z,2.13
2017-10-26T04:54:42.416Z,1.67
2017-10-26T04:57:10.203Z,2.00
2017-10-26T04:59:37.967Z,1.90
2017-10-26T05:02:05.819Z,2.30
2017-10-26T05:04:33.674Z,2.17
2017-10-26T05:07:02.485Z,2.60
2017-10-26T05:09:31.313Z,2.50
2017-10-26T05:11:59.320Z,3.00
2017-10-26T05:14:27.304Z,4.20
2017-10-26T05:16:55.072Z,3.27
2017-10-26T05:19:22.818Z,3.07
2017-10-26T05:21:50.682Z,3.50
2017-10-26T05:24:18.767Z,3.47
2017-10-26T05:26:46.632Z,3.70
2017-10-26T05:29:14.610Z,3.13
2017-10-26T05:31:42.386Z,4.13
2017-10-26T05:34:10.236Z,2.87
2017-10-26T05:36:38.265Z,4.70
2017-10-26T05:39:06.366Z,5.70
2017-10-26T05:41:34.353Z,4.07
2017-10-26T05:44:02.237Z,6.03
2017-10-26T05:46:30.100Z,5.43
2017-10-26T05:48:57.870Z,4.00
2017-10-26T05:51:26.439Z,4.10
2017-10-26T05:53:55.321Z,3.73
2017-10-26T05:56:24.275Z,3.50
2017-10-26T05:58:52.290Z,1.90
2017-10-26T06:01:20.146Z,1.97
2017-10-26T06:03:48.278Z,1.50
2017-10-26T06:06:16.168Z,1.93
2017-10-26T06:08:44.035Z,1.60
2017-10-26T06:11:11.920Z,1.80
2017-10-26T06:13:39.878Z,1.60
2017-10-26T06:16:07.740Z,1.90
2017-10-26T06:18:35.808Z,4.33
2017-10-26T06:21:03.797Z,4.70
2017-10-26T06:23:31.749Z,3.03
2017-10-26T06:26:00.642Z,2.90
2017-10-26T06:28:28.914Z,3.27
2017-10-26T06:30:56.798Z,2.33
2017-10-26T06:33:24.753Z,2.27
2017-10-26T06:35:53.304Z,3.27
2017-10-26T06:38:21.247Z,4.00
2017-10-26T06:40:49.783Z,5.60
2017-10-26T06:43:17.754Z,5.10
2017-10-26T06:45:45.823Z,4.07
2017-10-26T06:48:13.714Z,4.03
2017-10-26T06:50:41.762Z,3.57
2017-10-26T06:53:09.831Z,3.73
2017-10-26T06:55:37.712Z,3.80
2017-10-26T06:58:05.668Z,4.20
2017-10-26T07:00:33.608Z,3.17
2017-10-26T07:03:01.716Z,3.20
2017-10-26T07:05:29.701Z,3.00
2017-10-26T07:07:57.650Z,4.30
2017-10-26T07:10:25.618Z,4.30
2017-10-26T07:12:53.690Z,3.20
2017-10-26T07:15:21.563Z,3.80
2017-10-26T07:17:49.622Z,3.80
2017-10-26T07:20:17.591Z,4.23
2017-10-26T07:22:45.613Z,5.10
2017-10-26T07:25:14.356Z,7.10
2017-10-26T07:27:42.318Z,8.50
2017-10-26T07:30:10.321Z,7.37
2017-10-26T07:32:38.462Z,6.60
2017-10-26T07:35:06.430Z,6.23
2017-10-26T07:37:34.392Z,6.10
2017-10-26T07:40:02.517Z,6.13
2017-10-26T07:42:31.257Z,5.57
2017-10-26T07:44:59.225Z,5.33
2017-10-26T07:47:27.296Z,5.60
2017-10-26T07:49:55.376Z,5.10
2017-10-26T07:52:24.570Z,5.37
2017-10-26T07:54:53.356Z,5.47
2017-10-26T07:57:21.543Z,4.73
2017-10-26T07:59:49.599Z,3.80
2017-10-26T08:02:17.709Z,2.77
2017-10-26T08:04:46.568Z,2.80
2017-10-26T08:07:14.741Z,1.60
2017-10-26T08:09:42.741Z,1.83
2017-10-26T08:12:11.497Z,1.70
2017-10-26T08:14:39.567Z,1.67
2017-10-26T08:17:07.634Z,4.00
2017-10-26T08:19:35.609Z,3.17
2017-10-26T08:22:03.782Z,2.10
2017-10-26T08:24:31.880Z,2.80
2017-10-26T08:26:59.928Z,2.43
2017-10-26T08:29:27.892Z,2.50
2017-10-26T08:31:55.860Z,2.43
2017-10-26T08:34:23.837Z,2.70
2017-10-26T08:36:51.897Z,2.17
2017-10-26T08:39:19.911Z,2.70
2017-10-26T08:41:48.656Z,2.30
2017-10-26T08:44:16.647Z,2.80
2017-10-26T08:46:44.624Z,3.73
2017-10-26T08:49:13.380Z,3.83
2017-10-26T08:51:41.462Z,4.60
2017-10-26T08:54:09.366Z,5.77
2017-10-26T08:56:38.133Z,3.87
2017-10-26T08:59:06.996Z,4.00
2017-10-26T09:01:35.170Z,4.30
2017-10-26T09:04:03.346Z,5.33
2017-10-26T09:06:31.523Z,4.60
2017-10-26T09:08:59.595Z,5.93
2017-10-26T09:11:27.705Z,7.10
2017-10-26T09:13:56.560Z,6.60
2017-10-26T09:16:24.724Z,6.07
2017-10-26T09:18:53.039Z,5.77
2017-10-26T09:21:21.993Z,5.97
2017-10-26T09:23:50.070Z,6.13
2017-10-26T09:26:18.147Z,5.53
2017-10-26T09:28:46.310Z,5.77
2017-10-26T09:31:14.484Z,5.50
2017-10-26T09:33:42.869Z,5.53
2017-10-26T09:36:11.080Z,5.93
2017-10-26T09:38:40.040Z,5.43
2017-10-26T09:41:08.036Z,6.70
2017-10-26T09:43:37.096Z,6.13
2017-10-26T09:46:05.110Z,5.50
2017-10-26T09:48:33.569Z,5.40
2017-10-26T09:51:01.627Z,5.63
2017-10-26T09:53:30.507Z,5.10
2017-10-26T09:55:58.650Z,6.20
2017-10-26T09:58:26.751Z,5.67
2017-10-26T10:00:55.024Z,5.13
2017-10-26T10:03:23.203Z,5.23
2017-10-26T10:05:51.271Z,5.87
2017-10-26T10:08:19.373Z,6.27
2017-10-26T10:10:47.359Z,5.60
2017-10-26T10:13:16.206Z,6.20
2017-10-26T10:15:44.282Z,6.83
2017-10-26T10:18:12.482Z,5.93
2017-10-26T10:20:41.338Z,6.30
2017-10-26T10:23:09.409Z,6.20
2017-10-26T10:25:38.298Z,5.10
2017-10-26T10:28:06.267Z,5.87
2017-10-26T10:30:34.236Z,6.20
2017-10-26T10:33:02.559Z,6.30
2017-10-26T10:35:31.399Z,7.10
2017-10-26T10:38:00.190Z,6.87
2017-10-26T10:40:28.265Z,6.43
2017-10-26T10:42:56.435Z,5.77
2017-10-26T10:45:24.509Z,5.90
2017-10-26T10:47:52.583Z,5.30
2017-10-26T10:50:20.596Z,6.73
2017-10-26T10:52:49.482Z,9.57
2017-10-26T10:55:18.230Z,10.63
2017-10-26T10:57:46.233Z,11.27
2017-10-26T11:00:19.792Z,10.90
2017-10-26T11:02:47.978Z,12.40
2017-10-26T11:05:16.042Z,11.60
2017-10-26T11:07:45.127Z,12.13
2017-10-26T11:10:13.310Z,12.63
2017-10-26T11:12:41.379Z,13.83
2017-10-26T11:15:09.552Z,13.23
2017-10-26T11:17:37.626Z,14.50
2017-10-26T11:20:05.903Z,12.23
2017-10-26T11:22:34.387Z,13.10
2017-10-26T11:25:02.351Z,13.60
2017-10-26T11:27:30.634Z,12.80
2017-10-26T11:29:58.705Z,13.80
2017-10-26T11:32:26.806Z,13.73
2017-10-26T11:34:54.842Z,11.97
2017-10-26T11:37:22.851Z,14.17
2017-10-26T11:39:51.703Z,11.90
2017-10-26T11:42:19.728Z,9.57
2017-10-26T11:44:48.559Z,11.00
2017-10-26T11:47:16.630Z,11.10
2017-10-26T11:49:44.754Z,12.50
2017-10-26T11:52:13.082Z,13.67
2017-10-26T11:54:41.155Z,12.80
2017-10-26T11:57:09.326Z,12.17
2017-10-26T11:59:37.399Z,9.97
2017-10-26T12:02:05.422Z,10.60
2017-10-26T12:04:34.263Z,10.50
2017-10-26T12:07:02.395Z,11.03
2017-10-26T12:09:30.326Z,10.53
2017-10-26T12:11:58.274Z,11.30
2017-10-26T12:14:26.342Z,10.93
2017-10-26T12:16:54.621Z,10.60
2017-10-26T12:19:22.691Z,10.50
2017-10-26T12:21:50.867Z,10.47
2017-10-26T12:24:18.949Z,11.33
2017-10-26T12:26:47.221Z,9.80
2017-10-26T12:29:15.384Z,10.13
2017-10-26T12:31:43.557Z,9.80
2017-10-26T12:34:11.668Z,9.50
2017-10-26T12:36:40.639Z,8.80
2017-10-26T12:39:08.792Z,10.27
2017-10-26T12:41:36.968Z,10.20
2017-10-26T12:44:05.140Z,10.43
2017-10-26T12:46:33.221Z,10.00
2017-10-26T12:49:01.185Z,9.97
2017-10-26T12:51:29.457Z,10.23
2017-10-26T12:53:57.865Z,9.60
2017-10-26T12:56:25.906Z,9.97
2017-10-26T12:58:54.432Z,9.60
2017-10-26T13:01:23.286Z,9.17
2017-10-26T13:03:51.461Z,8.80
2017-10-26T13:06:19.524Z,9.10
2017-10-26T13:08:47.601Z,9.43
2017-10-26T13:11:15.716Z,9.33
2017-10-26T13:13:44.559Z,8.87
2017-10-26T13:16:12.737Z,7.90
2017-10-26T13:18:40.919Z,9.87
2017-10-26T13:21:08.995Z,8.83
2017-10-26T13:23:37.052Z,8.80
2017-10-26T13:26:05.222Z,8.60
2017-10-26T13:28:33.191Z,9.60
2017-10-26T13:31:01.978Z,10.47
2017-10-26T13:33:29.953Z,8.83
2017-10-26T13:35:57.974Z,9.00
2017-10-26T13:38:26.915Z,8.53
2017-10-26T13:40:54.776Z,9.07
2017-10-26T13:43:22.846Z,9.70
2017-10-26T13:45:51.028Z,8.80
2017-10-26T13:48:19.089Z,8.20
2017-10-26T13:50:47.175Z,8.00
2017-10-26T13:53:15.334Z,10.13
2017-10-26T13:55:43.310Z,8.20
2017-10-26T13:58:11.378Z,8.00
2017-10-26T14:00:39.551Z,9.10
2017-10-26T14:03:07.626Z,8.43
2017-10-26T14:05:35.592Z,7.87
2017-10-26T14:08:03.503Z,6.87
2017-10-26T14:10:32.348Z,7.00
2017-10-26T14:13:00.322Z,8.07
2017-10-26T14:15:28.287Z,7.03
2017-10-26T14:17:56.260Z,8.23
2017-10-26T14:20:24.225Z,6.27
2017-10-26T14:22:53.014Z,7.37
2017-10-26T14:25:20.955Z,8.60
2017-10-26T14:27:49.053Z,10.50
2017-10-26T14:30:17.228Z,10.13
2017-10-26T14:32:46.174Z,11.53
2017-10-26T14:35:14.190Z,10.30
2017-10-26T14:37:42.187Z,10.80
2017-10-26T14:40:10.245Z,9.77
2017-10-26T14:42:38.542Z,10.53
2017-10-26T14:45:07.290Z,10.53
2017-10-26T14:47:35.195Z,9.90
2017-10-26T14:50:04.986Z,10.63
2017-10-26T14:52:33.860Z,10.20
2017-10-26T14:55:01.982Z,9.50
2017-10-26T14:57:30.723Z,9.83
2017-10-26T14:59:58.690Z,10.80
2017-10-26T15:02:26.700Z,11.93
2017-10-26T15:04:55.447Z,9.07
2017-10-26T15:07:23.519Z,6.53
2017-10-26T15:09:51.590Z,5.20
2017-10-26T15:12:19.560Z,5.67
2017-10-26T15:14:47.531Z,5.27
2017-10-26T15:17:15.496Z,5.47
2017-10-26T15:19:43.708Z,6.93
2017-10-26T15:22:13.591Z,7.20
2017-10-26T15:24:41.876Z,10.00
2017-10-26T15:27:10.033Z,10.50
2017-10-26T15:29:38.753Z,10.83
2017-10-26T15:32:07.443Z,12.10
2017-10-26T15:34:36.239Z,13.13
2017-10-26T15:37:05.855Z,14.87
2017-10-26T15:39:34.088Z,14.87
2017-10-26T15:42:02.087Z,12.50
2017-10-26T15:44:30.842Z,13.50
2017-10-26T15:46:59.051Z,12.60
2017-10-26T15:49:27.742Z,12.90
2017-10-26T15:51:56.582Z,11.90
2017-10-26T15:54:24.802Z,12.67
2017-10-26T15:56:53.547Z,12.07
2017-10-26T15:59:21.450Z,12.40
2017-10-26T16:01:50.196Z,11.37
2017-10-26T16:04:18.108Z,10.70
2017-10-26T16:06:46.961Z,10.60
2017-10-26T16:09:14.952Z,10.77
2017-10-26T16:11:42.905Z,10.90
2017-10-26T16:14:10.972Z,10.80
2017-10-26T16:16:38.974Z,11.80
2017-10-26T16:19:07.729Z,11.33
2017-10-26T16:21:35.694Z,12.23
2017-10-26T16:24:03.664Z,11.80
2017-10-26T16:26:31.742Z,13.07
2017-10-26T16:29:00.217Z,12.60
2017-10-26T16:31:28.291Z,16.13
2017-10-26T16:33:56.908Z,16.93
2017-10-26T16:36:25.611Z,22.50
2017-10-26T16:38:54.651Z,22.20
2017-10-26T16:41:22.656Z,19.07
2017-10-26T16:43:51.920Z,19.50
2017-10-26T16:46:19.813Z,18.27
2017-10-26T16:48:47.750Z,17.70
2017-10-26T16:51:15.644Z,17.30
2017-10-26T16:53:44.408Z,16.07
2017-10-26T16:56:12.479Z,12.30
2017-10-26T16:58:41.165Z,10.03
2017-10-26T17:01:09.133Z,9.13
2017-10-26T17:03:37.303Z,8.00
2017-10-26T17:06:05.482Z,7.20
2017-10-26T17:08:33.481Z,7.20
2017-10-26T17:11:01.522Z,5.90
2017-10-26T17:13:30.311Z,6.20
2017-10-26T17:15:58.304Z,7.10
2017-10-26T17:18:26.351Z,6.90
2017-10-26T17:20:54.319Z,6.20
2017-10-26T17:23:22.497Z,7.00
2017-10-26T17:25:50.568Z,7.23
2017-10-26T17:28:19.463Z,8.30
2017-10-26T17:30:47.560Z,7.93
2017-10-26T17:33:15.697Z,6.03
2017-10-26T17:35:44.217Z,6.50
2017-10-26T17:38:13.068Z,6.10
2017-10-26T17:40:41.345Z,5.30
2017-10-26T17:43:09.419Z,4.80
2017-10-26T17:45:37.898Z,4.40
2017-10-26T17:48:05.828Z,7.20
2017-10-26T17:50:34.007Z,8.17
2017-10-26T17:53:02.770Z,9.93
2017-10-26T17:55:31.516Z,10.27
2017-10-26T17:57:59.480Z,10.50
2017-10-26T18:00:27.553Z,12.03
2017-10-26T18:02:55.730Z,14.00
2017-10-26T18:05:24.818Z,13.87
2017-10-26T18:07:52.909Z,12.90
2017-10-26T18:10:21.006Z,12.50
2017-10-26T18:12:49.894Z,9.80
2017-10-26T18:15:18.068Z,8.80
2017-10-26T18:17:46.816Z,9.93
2017-10-26T18:20:14.726Z,9.30
2017-10-26T18:22:43.468Z,9.83
2017-10-26T18:25:11.553Z,10.03
2017-10-26T18:27:39.752Z,11.70
2017-10-26T18:30:07.733Z,9.73
2017-10-26T18:32:37.915Z,8.97
2017-10-26T18:35:05.905Z,9.77
2017-10-26T18:37:33.716Z,7.23
2017-10-26T18:40:01.724Z,7.67
2017-10-26T18:42:29.886Z,7.43
2017-10-26T18:44:57.877Z,9.13
2017-10-26T18:47:27.000Z,6.70
2017-10-26T18:49:55.753Z,6.30
2017-10-26T18:52:23.637Z,5.47
2017-10-26T18:54:52.441Z,6.73
2017-10-26T18:57:21.424Z,6.83
2017-10-26T18:59:50.113Z,5.90
2017-10-26T19:02:18.893Z,6.17
2017-10-26T19:04:47.745Z,6.93
2017-10-26T19:07:15.749Z,6.03
2017-10-26T19:09:43.719Z,5.00
2017-10-26T19:12:12.400Z,5.73
2017-10-26T19:14:40.339Z,4.93
2017-10-26T19:17:08.311Z,6.37
2017-10-26T19:19:36.592Z,5.60
2017-10-26T19:22:04.861Z,4.73
2017-10-26T19:24:32.930Z,5.90
2017-10-26T19:27:00.936Z,5.43
2017-10-26T19:29:28.871Z,5.30
2017-10-26T19:31:57.050Z,5.90
2017-10-26T19:34:25.020Z,4.87
2017-10-26T19:36:53.196Z,5.27
2017-10-26T19:39:21.160Z,5.47
2017-10-26T19:41:49.232Z,5.43
2017-10-26T19:44:24.372Z,5.47
2017-10-26T19:46:52.578Z,5.23
2017-10-26T19:49:21.478Z,5.87
2017-10-26T19:51:50.325Z,4.80
2017-10-26T19:54:18.287Z,5.77
2017-10-26T19:56:46.387Z,6.10
2017-10-26T19:59:14.562Z,5.80
2017-10-26T20:01:43.215Z,5.10
2017-10-26T20:04:11.388Z,4.80
2017-10-26T20:06:39.507Z,6.10
2017-10-26T20:09:08.252Z,6.27
2017-10-26T20:11:36.322Z,6.43
2017-10-26T20:14:04.291Z,5.60
2017-10-26T20:16:32.265Z,6.60
2017-10-26T20:19:00.235Z,4.90
2017-10-26T20:21:28.307Z,5.07
2017-10-26T20:23:56.377Z,5.30
2017-10-26T20:26:24.278Z,4.67
2017-10-26T20:28:53.027Z,4.80
2017-10-26T20:31:20.996Z,4.90
2017-10-26T20:33:48.974Z,4.63
2017-10-26T20:36:17.041Z,5.40
2017-10-26T20:38:45.048Z,5.27
2017-10-26T20:41:13.729Z,4.03
2017-10-26T20:43:42.486Z,4.80
2017-10-26T20:46:10.560Z,5.00
2017-10-26T20:48:38.617Z,4.53
2017-10-26T20:51:12.632Z,4.20
2017-10-26T20:53:46.125Z,5.10
2017-10-26T20:56:19.628Z,5.30
2017-10-26T20:58:53.637Z,6.00
2017-10-26T21:01:27.272Z,5.90
2017-10-26T21:04:10.259Z,4.60
2017-10-26T21:06:38.227Z,4.10
2017-10-26T21:09:11.725Z,5.30
2017-10-26T21:11:45.328Z,4.70
2017-10-26T21:14:19.038Z,3.97
2017-10-26T21:16:47.103Z,4.57
2017-10-26T21:19:15.064Z,4.63
2017-10-26T21:21:43.243Z,4.23
2017-10-26T21:24:11.430Z,5.13
2017-10-26T21:26:39.420Z,5.03
2017-10-26T21:29:07.505Z,5.27
2017-10-26T21:31:37.267Z,4.60
2017-10-26T21:34:05.276Z,5.30
2017-10-26T21:36:33.349Z,5.33
2017-10-26T21:39:02.812Z,4.83
2017-10-26T21:41:31.625Z,5.20
2017-10-26T21:43:59.708Z,5.27
2017-10-26T21:46:27.745Z,4.90
2017-10-26T21:48:55.712Z,5.13
2017-10-26T21:51:23.717Z,5.70
2017-10-26T21:53:51.753Z,5.20
2017-10-26T21:56:19.746Z,5.50
2017-10-26T21:58:47.699Z,4.47
2017-10-26T22:01:16.116Z,4.57
2017-10-26T22:03:44.975Z,3.50
2017-10-26T22:06:13.135Z,3.60
2017-10-26T22:08:41.308Z,3.73
2017-10-26T22:11:09.377Z,3.10
2017-10-26T22:13:37.553Z,2.87
2017-10-26T22:16:05.635Z,2.97
2017-10-26T22:18:34.924Z,3.57
2017-10-26T22:21:03.005Z,2.83
2017-10-26T22:23:31.170Z,3.40
2017-10-26T22:25:59.955Z,3.50
2017-10-26T22:28:28.026Z,3.17
2017-10-26T22:30:55.998Z,2.57
2017-10-26T22:33:23.964Z,3.67
2017-10-26T22:35:52.148Z,3.40
2017-10-26T22:38:20.108Z,2.80
2017-10-26T22:40:48.178Z,3.20
2017-10-26T22:43:16.084Z,2.83
2017-10-26T22:45:44.835Z,2.83
2017-10-26T22:48:12.804Z,3.40
2017-10-26T22:50:41.009Z,2.60
2017-10-26T22:53:08.871Z,2.90
2017-10-26T22:55:36.955Z,3.40
2017-10-26T22:58:05.727Z,3.00
2017-10-26T23:00:33.978Z,3.10
2017-10-26T23:03:01.951Z,2.80
2017-10-26T23:05:29.941Z,3.07
2017-10-26T23:07:58.190Z,3.67
2017-10-26T23:10:26.159Z,2.80
2017-10-26T23:12:54.335Z,2.70
2017-10-26T23:15:22.262Z,3.30
2017-10-26T23:17:51.206Z,2.70
2017-10-26T23:20:19.986Z,2.90
2017-10-26T23:22:48.053Z,3.00
2017-10-26T23:25:16.026Z,2.60
2017-10-26T23:27:43.990Z,3.13
2017-10-26T23:30:12.017Z,3.17
2017-10-26T23:32:39.957Z,3.00
2017-10-26T23:35:08.334Z,2.73
2017-10-26T23:37:37.093Z,3.40
2017-10-26T23:40:05.060Z,2.50
2017-10-26T23:42:33.033Z,2.97
2017-10-26T23:45:01.004Z,3.23
2017-10-26T23:47:29.073Z,2.43
2017-10-26T23:49:57.143Z,2.27
2017-10-26T23:52:25.112Z,2.30
2017-10-26T23:54:53.184Z,2.70
2017-10-26T23:57:21.099Z,2.87
2017-10-26T23:59:49.120Z,3.07
